sensor_id;sensor_type;location;lat;lon;timestamp;temperature;humidity
18932;DHT22;9598;50.954;3.112;2022-12-18T00:04:46;-1.70;99.90
18932;DHT22;9598;50.954;3.112;2022-12-18T00:09:48;-1.70;99.90
18932;DHT22;9598;50.954;3.112;2022-12-18T00:14:50;-1.70;99.90
18932;DHT22;9598;50.954;3.112;2022-12-18T00:19:54;-1.70;99.90
18932;DHT22;9598;50.954;3.112;2022-12-18T00:24:56;-1.70;99.90
18932;DHT22;9598;50.954;3.112;2022-12-18T00:29:58;-1.60;99.90
18932;DHT22;9598;50.954;3.112;2022-12-18T00:35:02;-1.70;99.90
18932;DHT22;9598;50.954;3.112;2022-12-18T00:40:06;-1.70;99.90
18932;DHT22;9598;50.954;3.112;2022-12-18T00:45:10;-1.70;99.90
18932;DHT22;9598;50.954;3.112;2022-12-18T00:50:13;-1.70;99.90
18932;DHT22;9598;50.954;3.112;2022-12-18T00:55:16;-1.70;99.90
18932;DHT22;9598;50.954;3.112;2022-12-18T01:00:18;-1.80;99.90
18932;DHT22;9598;50.954;3.112;2022-12-18T01:05:22;-1.80;99.90
18932;DHT22;9598;50.954;3.112;2022-12-18T01:10:24;-1.80;99.90
18932;DHT22;9598;50.954;3.112;2022-12-18T01:15:27;-1.90;99.90
18932;DHT22;9598;50.954;3.112;2022-12-18T01:20:30;-1.80;99.90
18932;DHT22;9598;50.954;3.112;2022-12-18T01:25:32;-1.80;99.90
18932;DHT22;9598;50.954;3.112;2022-12-18T01:30:34;-1.80;99.90
18932;DHT22;9598;50.954;3.112;2022-12-18T01:35:41;-1.80;99.90
18932;DHT22;9598;50.954;3.112;2022-12-18T01:40:44;-1.70;99.90
18932;DHT22;9598;50.954;3.112;2022-12-18T01:45:46;-1.70;99.90
18932;DHT22;9598;50.954;3.112;2022-12-18T01:50:49;-1.70;99.90
18932;DHT22;9598;50.954;3.112;2022-12-18T01:55:53;-1.70;99.90
18932;DHT22;9598;50.954;3.112;2022-12-18T02:00:56;-1.90;99.90
18932;DHT22;9598;50.954;3.112;2022-12-18T02:06:03;-2.00;99.90
18932;DHT22;9598;50.954;3.112;2022-12-18T02:11:12;-2.10;99.90
18932;DHT22;9598;50.954;3.112;2022-12-18T02:16:21;-2.10;99.90
18932;DHT22;9598;50.954;3.112;2022-12-18T02:21:34;-2.00;99.90
18932;DHT22;9598;50.954;3.112;2022-12-18T02:26:43;-2.00;99.90
18932;DHT22;9598;50.954;3.112;2022-12-18T02:31:52;-1.90;99.90
18932;DHT22;9598;50.954;3.112;2022-12-18T02:36:55;-1.90;99.90
18932;DHT22;9598;50.954;3.112;2022-12-18T02:42:00;-1.90;99.90
18932;DHT22;9598;50.954;3.112;2022-12-18T02:47:10;-1.90;99.90
18932;DHT22;9598;50.954;3.112;2022-12-18T02:52:18;-1.90;99.90
18932;DHT22;9598;50.954;3.112;2022-12-18T02:57:33;-2.00;99.90
18932;DHT22;9598;50.954;3.112;2022-12-18T03:02:40;-2.10;99.90
18932;DHT22;9598;50.954;3.112;2022-12-18T03:07:49;-2.20;99.90
18932;DHT22;9598;50.954;3.112;2022-12-18T03:13:00;-2.20;99.90
18932;DHT22;9598;50.954;3.112;2022-12-18T03:18:08;-2.20;99.90
18932;DHT22;9598;50.954;3.112;2022-12-18T03:23:16;-2.20;99.90
18932;DHT22;9598;50.954;3.112;2022-12-18T03:28:24;-2.30;99.90
18932;DHT22;9598;50.954;3.112;2022-12-18T03:33:38;-2.30;99.90
18932;DHT22;9598;50.954;3.112;2022-12-18T03:38:40;-2.30;99.90
18932;DHT22;9598;50.954;3.112;2022-12-18T03:43:49;-2.20;99.90
18932;DHT22;9598;50.954;3.112;2022-12-18T03:49:01;-2.20;99.90
18932;DHT22;9598;50.954;3.112;2022-12-18T03:54:06;-2.10;99.90
18932;DHT22;9598;50.954;3.112;2022-12-18T03:59:17;-2.10;99.90
18932;DHT22;9598;50.954;3.112;2022-12-18T04:04:21;-2.10;99.90
18932;DHT22;9598;50.954;3.112;2022-12-18T04:09:26;-2.10;99.90
18932;DHT22;9598;50.954;3.112;2022-12-18T04:14:30;-2.10;99.90
18932;DHT22;9598;50.954;3.112;2022-12-18T04:19:37;-2.10;99.90
18932;DHT22;9598;50.954;3.112;2022-12-18T04:24:40;-2.00;99.90
18932;DHT22;9598;50.954;3.112;2022-12-18T04:29:50;-2.00;99.90
18932;DHT22;9598;50.954;3.112;2022-12-18T04:34:53;-2.00;99.90
18932;DHT22;9598;50.954;3.112;2022-12-18T04:39:55;-1.90;99.90
18932;DHT22;9598;50.954;3.112;2022-12-18T04:45:08;-1.90;99.90
18932;DHT22;9598;50.954;3.112;2022-12-18T04:50:10;-1.90;99.90
18932;DHT22;9598;50.954;3.112;2022-12-18T04:55:13;-1.90;99.90
18932;DHT22;9598;50.954;3.112;2022-12-18T05:00:17;-1.90;99.90
18932;DHT22;9598;50.954;3.112;2022-12-18T05:05:19;-1.90;99.90
18932;DHT22;9598;50.954;3.112;2022-12-18T05:10:21;-1.90;99.90
18932;DHT22;9598;50.954;3.112;2022-12-18T05:15:26;-2.00;99.90
18932;DHT22;9598;50.954;3.112;2022-12-18T05:20:28;-2.10;99.90
18932;DHT22;9598;50.954;3.112;2022-12-18T05:25:31;-2.10;99.90
18932;DHT22;9598;50.954;3.112;2022-12-18T05:30:34;-2.10;99.90
18932;DHT22;9598;50.954;3.112;2022-12-18T05:35:36;-2.00;99.90
18932;DHT22;9598;50.954;3.112;2022-12-18T05:40:42;-2.10;99.90
18932;DHT22;9598;50.954;3.112;2022-12-18T05:45:46;-2.10;99.90
18932;DHT22;9598;50.954;3.112;2022-12-18T05:50:49;-2.30;99.90
18932;DHT22;9598;50.954;3.112;2022-12-18T05:55:51;-2.30;99.90
18932;DHT22;9598;50.954;3.112;2022-12-18T06:00:55;-2.40;99.90
18932;DHT22;9598;50.954;3.112;2022-12-18T06:05:57;-2.40;99.90
18932;DHT22;9598;50.954;3.112;2022-12-18T06:10:59;-2.50;99.90
18932;DHT22;9598;50.954;3.112;2022-12-18T06:16:04;-2.50;99.90
18932;DHT22;9598;50.954;3.112;2022-12-18T06:21:06;-2.50;99.90
18932;DHT22;9598;50.954;3.112;2022-12-18T06:26:10;-2.50;99.90
18932;DHT22;9598;50.954;3.112;2022-12-18T06:31:14;-2.60;99.90
18932;DHT22;9598;50.954;3.112;2022-12-18T06:36:16;-2.60;99.90
18932;DHT22;9598;50.954;3.112;2022-12-18T06:41:19;-2.60;99.90
18932;DHT22;9598;50.954;3.112;2022-12-18T06:46:23;-2.60;99.90
18932;DHT22;9598;50.954;3.112;2022-12-18T06:51:26;-2.60;99.90
18932;DHT22;9598;50.954;3.112;2022-12-18T06:56:28;-2.50;99.90
18932;DHT22;9598;50.954;3.112;2022-12-18T07:01:32;-2.60;99.90
18932;DHT22;9598;50.954;3.112;2022-12-18T07:06:34;-2.60;99.90
18932;DHT22;9598;50.954;3.112;2022-12-18T07:11:36;-2.60;99.90
18932;DHT22;9598;50.954;3.112;2022-12-18T07:16:39;-2.60;99.90
18932;DHT22;9598;50.954;3.112;2022-12-18T07:21:42;-2.60;99.90
18932;DHT22;9598;50.954;3.112;2022-12-18T07:26:45;-2.60;99.90
18932;DHT22;9598;50.954;3.112;2022-12-18T07:31:49;-2.70;99.90
18932;DHT22;9598;50.954;3.112;2022-12-18T07:36:51;-2.60;99.90
18932;DHT22;9598;50.954;3.112;2022-12-18T07:41:53;-2.60;99.90
18932;DHT22;9598;50.954;3.112;2022-12-18T07:47:10;-2.50;99.90
18932;DHT22;9598;50.954;3.112;2022-12-18T07:52:12;-2.40;99.90
18932;DHT22;9598;50.954;3.112;2022-12-18T07:57:14;-2.40;99.90
18932;DHT22;9598;50.954;3.112;2022-12-18T08:02:18;-2.40;99.90
18932;DHT22;9598;50.954;3.112;2022-12-18T08:07:20;-2.30;99.90
18932;DHT22;9598;50.954;3.112;2022-12-18T08:12:22;-2.10;99.90
18932;DHT22;9598;50.954;3.112;2022-12-18T08:17:26;-2.10;99.90
18932;DHT22;9598;50.954;3.112;2022-12-18T08:22:28;-2.10;99.90
18932;DHT22;9598;50.954;3.112;2022-12-18T08:27:30;-2.00;99.90
18932;DHT22;9598;50.954;3.112;2022-12-18T08:32:33;-2.00;99.90
18932;DHT22;9598;50.954;3.112;2022-12-18T08:37:35;-2.00;99.90
18932;DHT22;9598;50.954;3.112;2022-12-18T08:42:37;-2.00;99.90
18932;DHT22;9598;50.954;3.112;2022-12-18T08:47:58;-1.90;99.90
18932;DHT22;9598;50.954;3.112;2022-12-18T08:53:00;-1.80;99.90
18932;DHT22;9598;50.954;3.112;2022-12-18T08:58:03;-1.90;99.90
18932;DHT22;9598;50.954;3.112;2022-12-18T09:03:11;-1.90;99.90
18932;DHT22;9598;50.954;3.112;2022-12-18T09:08:13;-1.90;99.90
18932;DHT22;9598;50.954;3.112;2022-12-18T09:13:16;-1.90;99.90
18932;DHT22;9598;50.954;3.112;2022-12-18T09:18:21;-1.90;99.90
18932;DHT22;9598;50.954;3.112;2022-12-18T09:23:24;-1.90;99.90
18932;DHT22;9598;50.954;3.112;2022-12-18T09:28:26;-1.70;99.90
18932;DHT22;9598;50.954;3.112;2022-12-18T09:33:30;-1.70;99.90
18932;DHT22;9598;50.954;3.112;2022-12-18T09:38:33;-1.60;99.90
18932;DHT22;9598;50.954;3.112;2022-12-18T09:43:39;-1.50;99.90
18932;DHT22;9598;50.954;3.112;2022-12-18T09:48:47;-1.50;99.90
18932;DHT22;9598;50.954;3.112;2022-12-18T09:53:55;-1.40;99.90
18932;DHT22;9598;50.954;3.112;2022-12-18T09:59:00;-1.40;99.90
18932;DHT22;9598;50.954;3.112;2022-12-18T10:04:05;-1.50;99.90
18932;DHT22;9598;50.954;3.112;2022-12-18T10:09:16;-1.50;99.90
18932;DHT22;9598;50.954;3.112;2022-12-18T10:14:25;-1.30;99.90
18932;DHT22;9598;50.954;3.112;2022-12-18T10:19:39;-1.30;99.90
18932;DHT22;9598;50.954;3.112;2022-12-18T10:24:55;-1.10;99.90
18932;DHT22;9598;50.954;3.112;2022-12-18T10:30:07;-1.00;99.90
18932;DHT22;9598;50.954;3.112;2022-12-18T10:35:19;-0.90;99.90
18932;DHT22;9598;50.954;3.112;2022-12-18T10:40:21;-1.00;99.90
18932;DHT22;9598;50.954;3.112;2022-12-18T10:45:23;-0.90;99.90
18932;DHT22;9598;50.954;3.112;2022-12-18T10:50:29;-0.90;99.90
18932;DHT22;9598;50.954;3.112;2022-12-18T10:55:33;-0.90;99.90
18932;DHT22;9598;50.954;3.112;2022-12-18T11:00:36;-0.90;99.90
18932;DHT22;9598;50.954;3.112;2022-12-18T11:05:40;-0.80;99.90
18932;DHT22;9598;50.954;3.112;2022-12-18T11:10:46;-0.80;99.90
18932;DHT22;9598;50.954;3.112;2022-12-18T11:15:49;-0.70;99.90
18932;DHT22;9598;50.954;3.112;2022-12-18T11:20:56;-0.60;99.90
18932;DHT22;9598;50.954;3.112;2022-12-18T11:26:00;-0.60;99.90
18932;DHT22;9598;50.954;3.112;2022-12-18T11:31:17;-0.60;99.90
18932;DHT22;9598;50.954;3.112;2022-12-18T11:36:22;-0.50;99.90
18932;DHT22;9598;50.954;3.112;2022-12-18T11:41:28;-0.50;99.90
18932;DHT22;9598;50.954;3.112;2022-12-18T11:46:51;-0.30;99.90
18932;DHT22;9598;50.954;3.112;2022-12-18T11:52:00;-0.40;99.90
18932;DHT22;9598;50.954;3.112;2022-12-18T11:57:07;-0.30;99.90
18932;DHT22;9598;50.954;3.112;2022-12-18T12:02:26;-0.20;99.90
18932;DHT22;9598;50.954;3.112;2022-12-18T12:07:38;-0.20;99.90
18932;DHT22;9598;50.954;3.112;2022-12-18T12:13:00;-0.20;99.90
18932;DHT22;9598;50.954;3.112;2022-12-18T12:18:08;-0.10;99.90
18932;DHT22;9598;50.954;3.112;2022-12-18T12:23:26;-0.10;99.90
18932;DHT22;9598;50.954;3.112;2022-12-18T12:28:53;0.00;99.90
18932;DHT22;9598;50.954;3.112;2022-12-18T12:34:07;0.00;99.90
18932;DHT22;9598;50.954;3.112;2022-12-18T12:39:18;0.00;99.90
18932;DHT22;9598;50.954;3.112;2022-12-18T12:44:25;0.00;99.90
18932;DHT22;9598;50.954;3.112;2022-12-18T12:49:31;0.00;99.90
18932;DHT22;9598;50.954;3.112;2022-12-18T12:54:38;0.10;99.90
18932;DHT22;9598;50.954;3.112;2022-12-18T12:59:47;0.10;99.90
18932;DHT22;9598;50.954;3.112;2022-12-18T13:04:58;0.10;99.90
18932;DHT22;9598;50.954;3.112;2022-12-18T13:10:30;0.20;99.90
18932;DHT22;9598;50.954;3.112;2022-12-18T13:15:37;0.20;99.90
18932;DHT22;9598;50.954;3.112;2022-12-18T13:20:42;0.20;99.90
18932;DHT22;9598;50.954;3.112;2022-12-18T13:25:46;0.20;99.90
18932;DHT22;9598;50.954;3.112;2022-12-18T13:30:54;0.30;99.90
18932;DHT22;9598;50.954;3.112;2022-12-18T13:36:02;0.30;99.90
18932;DHT22;9598;50.954;3.112;2022-12-18T13:41:22;0.30;99.90
18932;DHT22;9598;50.954;3.112;2022-12-18T13:46:27;0.30;99.90
18932;DHT22;9598;50.954;3.112;2022-12-18T13:51:32;0.30;99.90
18932;DHT22;9598;50.954;3.112;2022-12-18T13:56:43;0.40;99.90
18932;DHT22;9598;50.954;3.112;2022-12-18T14:01:49;0.30;99.90
18932;DHT22;9598;50.954;3.112;2022-12-18T14:06:55;0.40;99.90
18932;DHT22;9598;50.954;3.112;2022-12-18T14:11:59;0.30;99.90
18932;DHT22;9598;50.954;3.112;2022-12-18T14:17:20;0.40;99.90
18932;DHT22;9598;50.954;3.112;2022-12-18T14:22:24;0.40;99.90
18932;DHT22;9598;50.954;3.112;2022-12-18T14:27:29;0.40;99.90
18932;DHT22;9598;50.954;3.112;2022-12-18T14:32:31;0.50;99.90
18932;DHT22;9598;50.954;3.112;2022-12-18T14:37:34;0.40;99.90
18932;DHT22;9598;50.954;3.112;2022-12-18T14:42:37;0.40;99.90
18932;DHT22;9598;50.954;3.112;2022-12-18T14:47:43;0.40;99.90
18932;DHT22;9598;50.954;3.112;2022-12-18T14:52:45;0.40;99.90
18932;DHT22;9598;50.954;3.112;2022-12-18T14:57:51;0.50;99.90
18932;DHT22;9598;50.954;3.112;2022-12-18T15:02:56;0.50;99.90
18932;DHT22;9598;50.954;3.112;2022-12-18T15:08:00;0.50;99.90
18932;DHT22;9598;50.954;3.112;2022-12-18T15:13:09;0.60;99.90
18932;DHT22;9598;50.954;3.112;2022-12-18T15:18:21;0.60;99.90
18932;DHT22;9598;50.954;3.112;2022-12-18T15:23:27;0.70;99.90
18932;DHT22;9598;50.954;3.112;2022-12-18T15:28:35;0.70;99.90
18932;DHT22;9598;50.954;3.112;2022-12-18T15:33:40;0.80;99.90
18932;DHT22;9598;50.954;3.112;2022-12-18T15:38:46;0.90;99.90
18932;DHT22;9598;50.954;3.112;2022-12-18T15:43:51;0.90;99.90
18932;DHT22;9598;50.954;3.112;2022-12-18T15:48:54;0.90;99.90
18932;DHT22;9598;50.954;3.112;2022-12-18T15:53:58;1.00;99.90
18932;DHT22;9598;50.954;3.112;2022-12-18T15:59:04;1.00;99.90
18932;DHT22;9598;50.954;3.112;2022-12-18T16:04:12;1.10;99.90
18932;DHT22;9598;50.954;3.112;2022-12-18T16:09:15;1.20;99.90
18932;DHT22;9598;50.954;3.112;2022-12-18T16:14:21;1.10;99.90
18932;DHT22;9598;50.954;3.112;2022-12-18T16:19:23;1.00;99.90
18932;DHT22;9598;50.954;3.112;2022-12-18T16:24:28;1.00;99.90
18932;DHT22;9598;50.954;3.112;2022-12-18T16:29:31;1.10;99.90
18932;DHT22;9598;50.954;3.112;2022-12-18T16:34:34;1.20;99.90
18932;DHT22;9598;50.954;3.112;2022-12-18T16:39:37;1.20;99.90
18932;DHT22;9598;50.954;3.112;2022-12-18T16:44:41;1.30;99.90
18932;DHT22;9598;50.954;3.112;2022-12-18T16:49:43;1.30;99.90
18932;DHT22;9598;50.954;3.112;2022-12-18T16:54:47;1.30;99.90
18932;DHT22;9598;50.954;3.112;2022-12-18T16:59:53;1.30;99.90
18932;DHT22;9598;50.954;3.112;2022-12-18T17:04:57;1.40;99.90
18932;DHT22;9598;50.954;3.112;2022-12-18T17:09:59;1.40;99.90
18932;DHT22;9598;50.954;3.112;2022-12-18T17:15:03;1.40;99.90
18932;DHT22;9598;50.954;3.112;2022-12-18T17:20:06;1.40;99.90
18932;DHT22;9598;50.954;3.112;2022-12-18T17:25:08;1.40;99.90
18932;DHT22;9598;50.954;3.112;2022-12-18T17:30:13;1.50;99.90
18932;DHT22;9598;50.954;3.112;2022-12-18T17:35:15;1.50;99.90
18932;DHT22;9598;50.954;3.112;2022-12-18T17:40:17;1.50;99.90
18932;DHT22;9598;50.954;3.112;2022-12-18T17:45:20;1.50;99.90
18932;DHT22;9598;50.954;3.112;2022-12-18T17:50:22;1.60;99.90
18932;DHT22;9598;50.954;3.112;2022-12-18T17:55:25;1.60;99.90
18932;DHT22;9598;50.954;3.112;2022-12-18T18:00:28;1.60;99.90
18932;DHT22;9598;50.954;3.112;2022-12-18T18:05:31;1.60;99.90
18932;DHT22;9598;50.954;3.112;2022-12-18T18:10:34;1.60;99.90
18932;DHT22;9598;50.954;3.112;2022-12-18T18:15:39;1.60;99.90
18932;DHT22;9598;50.954;3.112;2022-12-18T18:20:41;1.50;99.90
18932;DHT22;9598;50.954;3.112;2022-12-18T18:25:43;1.60;99.90
18932;DHT22;9598;50.954;3.112;2022-12-18T18:30:47;1.60;99.90
18932;DHT22;9598;50.954;3.112;2022-12-18T18:35:50;1.60;99.90
18932;DHT22;9598;50.954;3.112;2022-12-18T18:40:57;1.60;99.90
18932;DHT22;9598;50.954;3.112;2022-12-18T18:46:02;1.60;99.90
18932;DHT22;9598;50.954;3.112;2022-12-18T18:51:06;1.70;99.90
18932;DHT22;9598;50.954;3.112;2022-12-18T18:56:10;1.70;99.90
18932;DHT22;9598;50.954;3.112;2022-12-18T19:01:15;1.70;99.90
18932;DHT22;9598;50.954;3.112;2022-12-18T19:06:20;1.80;99.90
18932;DHT22;9598;50.954;3.112;2022-12-18T19:11:24;1.70;99.90
18932;DHT22;9598;50.954;3.112;2022-12-18T19:16:45;1.80;99.90
18932;DHT22;9598;50.954;3.112;2022-12-18T19:21:47;1.80;99.90
18932;DHT22;9598;50.954;3.112;2022-12-18T19:26:49;1.90;99.90
18932;DHT22;9598;50.954;3.112;2022-12-18T19:31:53;1.90;99.90
18932;DHT22;9598;50.954;3.112;2022-12-18T19:36:55;2.00;99.90
18932;DHT22;9598;50.954;3.112;2022-12-18T19:41:58;2.00;99.90
18932;DHT22;9598;50.954;3.112;2022-12-18T19:47:02;2.00;99.90
18932;DHT22;9598;50.954;3.112;2022-12-18T19:52:04;2.00;99.90
18932;DHT22;9598;50.954;3.112;2022-12-18T19:57:06;2.10;99.90
18932;DHT22;9598;50.954;3.112;2022-12-18T20:02:14;2.10;99.90
18932;DHT22;9598;50.954;3.112;2022-12-18T20:07:16;2.20;99.90
18932;DHT22;9598;50.954;3.112;2022-12-18T20:12:18;2.10;99.90
18932;DHT22;9598;50.954;3.112;2022-12-18T20:17:21;2.10;99.90
18932;DHT22;9598;50.954;3.112;2022-12-18T20:22:23;2.20;99.90
18932;DHT22;9598;50.954;3.112;2022-12-18T20:27:25;2.20;99.90
18932;DHT22;9598;50.954;3.112;2022-12-18T20:32:29;2.20;99.90
18932;DHT22;9598;50.954;3.112;2022-12-18T20:37:31;2.20;99.90
18932;DHT22;9598;50.954;3.112;2022-12-18T20:42:33;2.20;99.90
18932;DHT22;9598;50.954;3.112;2022-12-18T20:47:36;2.20;99.90
18932;DHT22;9598;50.954;3.112;2022-12-18T20:52:38;2.30;99.90
18932;DHT22;9598;50.954;3.112;2022-12-18T20:57:41;2.30;99.90
18932;DHT22;9598;50.954;3.112;2022-12-18T21:02:44;2.30;99.90
18932;DHT22;9598;50.954;3.112;2022-12-18T21:07:46;2.30;99.90
18932;DHT22;9598;50.954;3.112;2022-12-18T21:12:48;2.40;99.90
18932;DHT22;9598;50.954;3.112;2022-12-18T21:17:53;2.40;99.90
18932;DHT22;9598;50.954;3.112;2022-12-18T21:22:58;2.50;99.90
18932;DHT22;9598;50.954;3.112;2022-12-18T21:28:02;2.50;99.90
18932;DHT22;9598;50.954;3.112;2022-12-18T21:33:05;2.50;99.90
18932;DHT22;9598;50.954;3.112;2022-12-18T21:38:07;2.50;99.90
18932;DHT22;9598;50.954;3.112;2022-12-18T21:43:09;2.60;99.90
18932;DHT22;9598;50.954;3.112;2022-12-18T21:48:29;2.60;99.90
18932;DHT22;9598;50.954;3.112;2022-12-18T21:53:31;2.70;99.90
18932;DHT22;9598;50.954;3.112;2022-12-18T21:58:33;2.80;99.90
18932;DHT22;9598;50.954;3.112;2022-12-18T22:03:37;2.80;99.90
18932;DHT22;9598;50.954;3.112;2022-12-18T22:08:39;2.90;99.90
18932;DHT22;9598;50.954;3.112;2022-12-18T22:13:41;2.90;99.90
18932;DHT22;9598;50.954;3.112;2022-12-18T22:18:44;3.00;99.90
18932;DHT22;9598;50.954;3.112;2022-12-18T22:23:51;3.10;99.90
18932;DHT22;9598;50.954;3.112;2022-12-18T22:28:54;3.10;99.90
18932;DHT22;9598;50.954;3.112;2022-12-18T22:34:15;3.20;99.90
18932;DHT22;9598;50.954;3.112;2022-12-18T22:39:19;3.30;99.90
18932;DHT22;9598;50.954;3.112;2022-12-18T22:44:22;3.40;99.90
18932;DHT22;9598;50.954;3.112;2022-12-18T22:49:25;3.40;99.90
18932;DHT22;9598;50.954;3.112;2022-12-18T22:54:27;3.60;99.90
18932;DHT22;9598;50.954;3.112;2022-12-18T22:59:29;3.50;99.90
18932;DHT22;9598;50.954;3.112;2022-12-18T23:04:33;3.70;99.90
18932;DHT22;9598;50.954;3.112;2022-12-18T23:09:36;3.70;99.90
18932;DHT22;9598;50.954;3.112;2022-12-18T23:14:38;3.80;99.90
18932;DHT22;9598;50.954;3.112;2022-12-18T23:19:42;3.90;99.90
18932;DHT22;9598;50.954;3.112;2022-12-18T23:24:44;4.00;99.90
18932;DHT22;9598;50.954;3.112;2022-12-18T23:29:47;4.00;99.90
18932;DHT22;9598;50.954;3.112;2022-12-18T23:34:51;4.10;99.90
18932;DHT22;9598;50.954;3.112;2022-12-18T23:39:54;4.20;99.90
18932;DHT22;9598;50.954;3.112;2022-12-18T23:44:56;4.20;99.90
18932;DHT22;9598;50.954;3.112;2022-12-18T23:49:59;4.30;99.90
18932;DHT22;9598;50.954;3.112;2022-12-18T23:55:01;4.30;99.90
